Tiempo atmosférico en la estación meteorológica de Velilla del Río Carrión, Camporredondo de Alba, Palencia (1575 m.)



Fecha
DESCASC
Temp. máxima en grados centígrados (hora)
DESCASC
Temp. mínima en grados centígrados (hora)
DESCASC
Temp. media en grados centígrados
DESCASC
Racha de viento máxima en m/sg (hora)
DESCASC
Velocidad máxima media en intervalos de 10 minutos(hora)
DESCASC
Precipitaciones diarias en mm
DESCASC
Precipitaciones de 00:00 a 06:00 en mm
DESCASC
Precipitaciones de 06:00 a 12:00 en mm
DESCASC
Precipitaciones de 12:00 a 18:00 en mm
DESCASC
Precipitaciones de 18:00 a 24:00 en mm
DESCASC
08-12-2019 6.8 (12:00) 2.5 (03:00) 4.7 10 (19:10) 6.39 (05:10) 0.4 0 0.2 0.2 0
07-12-2019 10.6 (12:10) 3.9 (00:10) 7.3 11.39 (14:30) 7.78 (14:30) 0 0 0 0 0
06-12-2019 8.4 (15:20) 0.6 (06:00) 4.5 6.39 (06:20) 4.44 (04:40) 0 0 0 0 0
05-12-2019 8.4 (14:30) 1.2 (00:00) 4.8 16.67 (09:30) 13.06 (09:30) 0 0 0 0 0
04-12-2019 8.8 (15:40) -2.1 (00:30) 3.4 11.39 (23:50) 6.67 (23:50) 0 0 0 0 0
03-12-2019 5.2 (13:10) -3.3 (-00:0) 0.9 15.56 (09:10) 11.39 (10:10) 0 0 0 0 0
02-12-2019 4.4 (16:10) -2 (-00:0) 1.2 15.56 (06:00) 10.83 (06:00) 0.4 0 0.4 0 0
01-12-2019 5.1 (15:40) -0.6 (-00:0) 2.2 6.67 (15:20) 4.72 (17:10) 4.2 0 0 4.2 0
30-11-2019 7.1 (11:00) -0.3 (00:00) 3.4 28.33 (11:50) 16.94 (11:50) 8.4 1.4 6.2 0.8 0
29-11-2019 10.4 (14:30) 2.9 (00:00) 6.6 8.33 (04:20) 6.11 (04:10) 0.4 0.4 0 0 0
28-11-2019 5.3 (12:50) 2.8 (00:00) 4.1 19.72 (14:20) 12.22 (14:20) 16 0.6 1 8.8 5.6
27-11-2019 3.1 (14:30) 1.2 (00:00) 2.1 24.44 (01:30) 15 (01:30) 5 0.2 0 4 0.8
26-11-2019 7.1 (15:50) 2.1 (00:00) 4.6 36.11 (17:30) 20 (19:40) 6 0 2.4 0.6 3
25-11-2019 5.9 (14:00) 2.7 (22:50) 4.3 10.83 (02:40) 7.22 (23:10) 0.4 0 0.4 0 0
24-11-2019 2.8 (23:30) -1 (-00:0) 0.9 11.39 (16:00) 7.78 (15:50) 3.2 0 0.2 1.6 1.4
23-11-2019 1 (00:00) -2.1 (-00:0) -0.5 18.61 (20:30) 11.67 (00:40) 2.6 0.4 1 1.2 0
22-11-2019 4.6 (14:10) -0.3 (00:00) 2.1 25 (15:40) 16.11 (15:30) 37.4 0.2 10.4 24.2 2.6
21-11-2019 3.7 (13:50) -0.6 (-00:0) 1.6 11.39 (23:59) 7.78 (23:50) 4.8 0 2.6 2.2 0
20-11-2019 1.4 (13:30) -1.3 (00:00) 0.1 9.17 (23:59) 5.28 (00:10) 3 0 1.2 1.6 0.2
19-11-2019 2.2 (14:40) -4.1 (-00:0) -0.9 6.94 (23:10) 6.11 (23:10) 1 0 0 1 0
18-11-2019 -- (--) -- (--) -- -- (--) -- (--) -- 0 -- 6.2 0.2
17-11-2019 1.7 (15:00) -2.4 (-00:0) -0.4 11.11 (16:00) 6.39 (15:20) 0 0 0 0 0
16-11-2019 -- (--) -- (--) -- -- (--) -- (--) -- -- 0 0 0
15-11-2019 -0.9 (11:20) -3.9 (-00:0) -2.4 12.5 (10:10) 5.28 (02:50) 0.2 0 0 0.2 0
14-11-2019 0.7 (00:00) -4.3 (-00:0) -1.8 17.5 (07:50) 10.83 (08:40) 2.4 1 1 0.4 0
13-11-2019 5.1 (15:10) 0.5 (00:00) 2.8 15 (23:10) 8.61 (23:10) 6.8 6.8 0 0 0
12-11-2019 3.4 (12:30) -1.1 (-00:0) 1.2 10 (13:20) 6.94 (13:10) 16.2 0 0 2.4 13.8
11-11-2019 6.5 (12:20) -1.3 (01:10) 2.6 18.61 (11:20) 8.61 (10:40) 26.2 0.2 18.8 7.2 0
10-11-2019 1.4 (15:50) -2.7 (-00:0) -0.7 5.28 (00:10) 3.33 (00:20) 1.4 0 0 1.2 0.2
09-11-2019 2.9 (15:50) -1.5 (-00:0) 0.7 19.44 (18:00) 11.67 (17:50) 8.2 0 0.2 8 0

Gráficas

Temp. máximas Temp. mínimas Temp. medias Precipitaciones Rachas de viento máximas Velocidades máximas media en intervalos de 10 minutos

Datos horarios

Fecha y hora oficial Temperatura (ºC) Velocidad del viento (km/h) Dirección del viento Racha (km/h) Dirección de racha Precipitación (mm) Presión (hPa) Tendencia (hPa) Humedad (%)
2019-12-08 23:00:00 3.4 10 Oeste 25 Norte 0 -- -- 43
2019-12-08 22:00:00 3.9 16 Oeste 28 Oeste 0 -- -- 44
2019-12-08 21:00:00 3.7 20 Noroeste 31 Noroeste 0 -- -- 57
2019-12-08 20:00:00 4.5 12 Noroeste 36 Norte 0 -- -- 61
2019-12-08 19:00:00 4.7 17 Noroeste 31 Noroeste 0 -- -- 60
2019-12-08 18:00:00 5.3 14 Noroeste 27 Norte 0 -- -- 82
2019-12-08 17:00:00 6.1 12 Noroeste 24 Norte 0 -- -- 88
2019-12-08 16:00:00 6.2 18 Noroeste 33 Noroeste 0 -- -- 98
2019-12-08 15:00:00 6.4 23 Noroeste 32 Noroeste 0 -- -- 99
2019-12-08 14:00:00 6.2 16 Oeste 24 Noroeste 0 -- -- 99
2019-12-08 13:00:00 6.2 12 Oeste 16 Oeste 0.2 -- -- 98
2019-12-08 12:00:00 6.8 12 Oeste 20 Oeste 0.2 -- -- 92
2019-12-08 11:00:00 4.1 14 Oeste 25 Noroeste 0 -- -- 96
2019-12-08 10:00:00 4 14 Noroeste 22 Oeste 0 -- -- 96
2019-12-08 09:00:00 4.3 14 Oeste 21 Oeste 0 -- -- 96
2019-12-08 08:00:00 3.6 12 Oeste 17 Oeste 0 -- -- 97
2019-12-08 07:00:00 4 14 Oeste 24 Noroeste 0 -- -- 94
2019-12-08 06:00:00 3.6 16 Oeste 28 Oeste 0 -- -- 96
2019-12-08 05:00:00 3.4 22 Oeste 29 Oeste 0 -- -- 95
2019-12-08 04:00:00 3.3 22 Noroeste 27 Oeste 0 -- -- 98
2019-12-08 03:00:00 2.5 13 Oeste 21 Oeste 0 -- -- 98
2019-12-08 02:00:00 3.2 15 Oeste 22 Oeste 0 -- -- 98
2019-12-08 01:00:00 3.4 13 Oeste 19 Oeste 0 -- -- 96
2019-12-08 00:00:00 4.1 12 Oeste 17 Oeste 0 -- -- 91
2019-12-07 23:00:00 4.8 9 Oeste 12 Oeste 0 -- -- 88
2019-12-07 22:00:00 5.1 10 Noroeste 14 Noroeste 0 -- -- 86
2019-12-07 21:00:00 4.5 13 Oeste 15 Oeste 0 -- -- 90
2019-12-07 20:00:00 5.4 4 Noroeste 13 Noroeste 0 -- -- 84
2019-12-07 19:00:00 4.9 9 Oeste 19 Oeste 0 -- -- 87
2019-12-07 18:00:00 5.5 13 Oeste 19 Oeste 0 -- -- 84
2019-12-07 17:00:00 8.8 10 Oeste 25 Oeste 0 -- -- 67
2019-12-07 16:00:00 9.9 18 Oeste 35 Oeste 0 -- -- 65
2019-12-07 15:00:00 10.1 25 Oeste 41 Oeste 0 -- -- 65
2019-12-07 14:00:00 10.2 19 Oeste 35 Oeste 0 -- -- 66
2019-12-07 13:00:00 10.1 20 Oeste 31 Oeste 0 -- -- 67
2019-12-07 12:00:00 9.7 10 Oeste 17 Noroeste 0 -- -- 69
2019-12-07 11:00:00 7.7 12 Noroeste 21 Noroeste 0 -- -- 73
2019-12-07 10:00:00 4.8 12 Oeste 18 Oeste 0 -- -- 75
2019-12-07 09:00:00 5.3 9 Oeste 17 Noroeste 0 -- -- 68
2019-12-07 08:00:00 5.3 12 Oeste 15 Noroeste 0 -- -- 69
2019-12-07 07:00:00 5.1 8 Oeste 12 Oeste 0 -- -- 69
2019-12-07 06:00:00 5.4 8 Oeste 17 Noroeste 0 -- -- 69
2019-12-07 05:00:00 5.7 15 Noroeste 16 Oeste 0 -- -- 69
2019-12-07 04:00:00 5.7 8 Oeste 14 Oeste 0 -- -- 71
2019-12-07 03:00:00 5.6 10 Noroeste 14 Noroeste 0 -- -- 58
2019-12-07 02:00:00 4.5 7 Noroeste 10 Noroeste 0 -- -- 58
2019-12-07 01:00:00 4.9 4 Noroeste 6 Sudoeste 0 -- -- 57
2019-12-07 00:00:00 4.4 3 Norte 9 Noroeste 0 -- -- 67
2019-12-06 23:00:00 5.4 8 Noroeste 11 Noroeste 0 -- -- 58
2019-12-06 22:00:00 4.6 4 Oeste 5 Oeste 0 -- -- 73
2019-12-06 21:00:00 4.1 0 Calma 6 Norte 0 -- -- 77
2019-12-06 20:00:00 4.6 4 Noroeste 8 Oeste 0 -- -- 73
2019-12-06 19:00:00 4.7 3 Oeste 14 Oeste 0 -- -- 74
2019-12-06 18:00:00 4.2 10 Oeste 15 Oeste 0 -- -- 80
2019-12-06 17:00:00 5 11 Oeste 15 Noroeste 0 -- -- 79
2019-12-06 16:00:00 6 6 Oeste 11 Oeste 0 -- -- 75
2019-12-06 15:00:00 6.6 6 Oeste 18 Oeste 0 -- -- 71
2019-12-06 14:00:00 6.1 3 Oeste 12 Oeste 0 -- -- 72
2019-12-06 13:00:00 7.1 3 Oeste 15 Oeste 0 -- -- 69
2019-12-06 12:00:00 4.7 8 Oeste 15 Oeste 0 -- -- 77
2019-12-06 11:00:00 2.9 9 Oeste 12 Noroeste 0 -- -- 86
2019-12-06 10:00:00 1.8 11 Oeste 12 Oeste 0 -- -- 82
2019-12-06 09:00:00 1.9 3 Oeste 10 Noroeste 0 -- -- 85
2019-12-06 08:00:00 1.5 5 Oeste 12 Noroeste 0 -- -- 84
2019-12-06 07:00:00 1.5 9 Noroeste 23 Oeste 0 -- -- 80
2019-12-06 06:00:00 0.6 12 Oeste 19 Oeste 0 -- -- 67
2019-12-06 05:00:00 1.6 12 Oeste 21 Oeste 0 -- -- 63
2019-12-06 04:00:00 1.9 10 Noroeste 12 Noroeste 0 -- -- 59
2019-12-06 03:00:00 2.7 0 Calma 7 Este 0 -- -- 52
2019-12-06 02:00:00 2.3 4 Este 13 Este 0 -- -- 54
2019-12-06 01:00:00 2.6 13 Este 17 Este 0 -- -- 54
2019-12-06 00:00:00 2.4 12 Este 17 Este 0 -- -- 62
2019-12-05 23:00:00 1.7 12 Este 29 Este 0 -- -- 77
2019-12-05 22:00:00 1.3 19 Este 28 Este 0 -- -- 89
2019-12-05 21:00:00 1.6 8 Este 18 Sudeste 0 -- -- 92
2019-12-05 20:00:00 1.8 8 Este 15 Este 0 -- -- 91
2019-12-05 19:00:00 2.2 7 Sudeste 23 Sudeste 0 -- -- 89
2019-12-05 18:00:00 2.4 4 Sur 28 Sudeste 0 -- -- 90
2019-12-05 17:00:00 3.6 12 Sudeste 33 Sudeste 0 -- -- 85
2019-12-05 16:00:00 4.7 26 Este 40 Sudeste 0 -- -- 81
2019-12-05 15:00:00 5.4 23 Este 34 Este 0 -- -- 78
2019-12-05 14:00:00 6.6 14 Sudeste 37 Este 0 -- -- 75
2019-12-05 13:00:00 6.8 16 Sudeste 51 Este 0 -- -- 74
2019-12-05 12:00:00 5.1 34 Este 48 Este 0 -- -- 78
2019-12-05 11:00:00 3.8 37 Este 59 Este 0 -- -- 86
2019-12-05 10:00:00 2.6 45 Este 60 Este 0 -- -- 91
2019-12-05 09:00:00 1.9 41 Este 54 Este 0 -- -- 92
2019-12-05 08:00:00 2.6 8 Sur 44 Sudeste 0 -- -- 87
2019-12-05 07:00:00 2.3 18 Sudeste 48 Sudeste 0 -- -- 89
2019-12-05 06:00:00 3.1 14 Sudeste 39 Este 0 -- -- 82
2019-12-05 05:00:00 2.2 17 Sudeste 40 Este 0 -- -- 85
2019-12-05 04:00:00 3.3 8 Nordeste 32 Nordeste 0 -- -- 75
2019-12-05 03:00:00 1.9 12 Este 28 Norte 0 -- -- 86
2019-12-05 02:00:00 2.8 7 Nordeste 47 Nordeste 0 -- -- 77
2019-12-05 01:00:00 2.3 9 Sudoeste 35 Nordeste 0 -- -- 78
2019-12-05 00:00:00 2.5 19 Norte 41 Nordeste 0 -- -- 72
2019-12-04 23:00:00 2.8 10 Noroeste 18 Noroeste 0 -- -- 61
2019-12-04 22:00:00 3.5 8 Oeste 31 Este 0 -- -- 59
2019-12-04 21:00:00 3.9 4 Sudoeste 18 Este 0 -- -- 64
2019-12-04 20:00:00 4.5 7 Sudoeste 13 Sudoeste 0 -- -- 61
2019-12-04 19:00:00 4.5 5 Sur 13 Sudeste 0 -- -- 62
2019-12-04 18:00:00 4.2 7 Sudeste 16 Este 0 -- -- 66
2019-12-04 17:00:00 6.4 4 Sur 11 Sur 0 -- -- 62
2019-12-04 16:00:00 7.9 5 Sudeste 21 Este 0 -- -- 58
2019-12-04 15:00:00 7.2 4 Sudeste 18 Este 0 -- -- 58
2019-12-04 14:00:00 7.6 4 Sur 8 Sudeste 0 -- -- 60
2019-12-04 13:00:00 7.6 2 Sudeste 6 Sudoeste 0 -- -- 57
2019-12-04 12:00:00 5.1 3 Este 8 Sur 0 -- -- 63
2019-12-04 11:00:00 5.4 6 Sudeste 12 Sur 0 -- -- 63
2019-12-04 10:00:00 3.1 4 Este 7 Este 0 -- -- 69
2019-12-04 09:00:00 0.8 4 Sudoeste 10 Sudoeste 0 -- -- 82
2019-12-04 08:00:00 -0.1 2 Sudeste 8 Nordeste 0 -- -- 83
2019-12-04 07:00:00 -0.2 5 Este 7 Nordeste 0 -- -- 84
2019-12-04 06:00:00 -0.2 6 Este 9 Este 0 -- -- 85
2019-12-04 05:00:00 -1 0 Calma 4 Sur 0 -- -- 89
2019-12-04 04:00:00 -1.1 3 Sur 15 Sudoeste 0 -- -- 90
2019-12-04 03:00:00 -1.7 5 Sudoeste 15 Sudoeste 0 -- -- 87
2019-12-04 02:00:00 -0.8 2 Este 13 Sudoeste 0 -- -- 81
2019-12-04 01:00:00 -2 8 Sudeste 18 Sudeste 0 -- -- 95
2019-12-04 00:00:00 -1.6 8 Sur 17 Sur 0 -- -- 90
2019-12-03 23:00:00 -0.8 4 Sur 12 Sur 0 -- -- 82
2019-12-03 22:00:00 -0.8 2 Este 6 Este 0 -- -- 69
2019-12-03 21:00:00 -0.8 3 Sudeste 15 Este 0 -- -- 43
2019-12-03 20:00:00 -3.2 13 Este 19 Este 0 -- -- 71
2019-12-03 19:00:00 -0.8 6 Sudeste 17 Sudeste 0 -- -- 27
2019-12-03 18:00:00 0 6 Sudeste 19 Sudeste 0 -- -- 25
2019-12-03 17:00:00 3 9 Sur 19 Sur 0 -- -- 26
2019-12-03 16:00:00 3.7 8 Sudeste 30 Este 0 -- -- 27
2019-12-03 15:00:00 3.9 15 Sudeste 38 Este 0 -- -- 29
2019-12-03 14:00:00 2.1 28 Este 39 Sudeste 0 -- -- 36
2019-12-03 13:00:00 4.7 9 Sudeste 43 Este 0 -- -- 27
2019-12-03 12:00:00 1.7 36 Este 48 Este 0 -- -- 35
2019-12-03 11:00:00 0.6 33 Este 55 Este 0 -- -- 45
2019-12-03 10:00:00 -0.1 38 Este 56 Este 0 -- -- 44
2019-12-03 09:00:00 -1.1 24 Sudeste 52 Este 0 -- -- 61
2019-12-03 08:00:00 -1 33 Este 51 Este 0 -- -- 65
2019-12-03 07:00:00 -1.7 31 Este 46 Este 0 -- -- 74
2019-12-03 06:00:00 -1.4 14 Sudeste 30 Este 0 -- -- 71
2019-12-03 05:00:00 -1.5 9 Sur 28 Sudeste 0 -- -- 69
2019-12-03 04:00:00 -1.8 12 Este 31 Este 0 -- -- 63
2019-12-03 03:00:00 -0.5 4 Sur 13 Sur 0 -- -- 43
2019-12-03 02:00:00 -1.1 3 Sur 15 Sudoeste 0 -- -- 52
2019-12-03 01:00:00 -1.1 5 Sudeste 14 Este 0 -- -- 52
2019-12-03 00:00:00 -1.5 2 Sudoeste 26 Sudeste 0 -- -- 59
2019-12-02 23:00:00 -1.7 11 Sudeste 28 Este 0 -- -- 64
2019-12-02 22:00:00 -2 4 Sudoeste 46 Este 0 -- -- 69
2019-12-02 21:00:00 -1.7 28 Sudeste 41 Este 0 -- -- 67
2019-12-02 20:00:00 -0.4 8 Sur 24 Sudeste 0 -- -- 50
2019-12-02 19:00:00 0.2 9 Sur 27 Sur 0 -- -- 49
2019-12-02 18:00:00 -0.2 5 Oeste 29 Este 0 -- -- 70
2019-12-02 17:00:00 1.3 10 Este 25 Este 0 -- -- 74
2019-12-02 16:00:00 3.7 3 Nordeste 38 Nordeste 0 -- -- 67
2019-12-02 15:00:00 2.7 17 Nordeste 37 Nordeste 0 -- -- 71
2019-12-02 14:00:00 3.6 6 Sur 44 Este 0 -- -- 72
2019-12-02 13:00:00 2.3 23 Este 37 Este 0 -- -- 81
2019-12-02 12:00:00 2.2 31 Este 51 Este 0.2 -- -- 83
2019-12-02 11:00:00 1.9 30 Este 54 Este 0.2 -- -- 83
2019-12-02 10:00:00 0.7 30 Este 48 Este 0 -- -- 89
2019-12-02 09:00:00 0.6 33 Este 53 Este 0 -- -- 88
2019-12-02 08:00:00 0.3 37 Este 51 Este 0 -- -- 90
2019-12-02 07:00:00 0.2 30 Este 55 Este 0 -- -- 90
2019-12-02 06:00:00 0.2 39 Este 56 Este 0 -- -- 90
2019-12-02 05:00:00 0.3 23 Este 36 Este 0 -- -- 87
2019-12-02 04:00:00 -0.7 9 Sudeste 27 Este 0 -- -- 91
2019-12-02 03:00:00 0.1 5 Nordeste 25 Nordeste 0 -- -- 84
2019-12-02 02:00:00 -0.5 9 Este 25 Nordeste 0 -- -- 89
2019-12-02 01:00:00 -0.4 10 Este 20 Este 0 -- -- 87
2019-12-02 00:00:00 -0.3 4 Sudeste 11 Este 0 -- -- 93
2019-12-01 23:00:00 -0.2 2 Oeste 10 Sudoeste 0 -- -- 98
2019-12-01 22:00:00 -0.2 6 Oeste 8 Oeste 0 -- -- 99
2019-12-01 21:00:00 -0.2 5 Oeste 12 Nordeste 0 -- -- 99
2019-12-01 20:00:00 -0.1 4 Nordeste 7 Nordeste 0 -- -- 98
2019-12-01 19:00:00 0.2 2 Oeste 8 Oeste 0 -- -- 97
2019-12-01 18:00:00 1 7 Este 23 Sudeste 0 -- -- 91
2019-12-01 17:00:00 1.6 13 Este 20 Este 0 -- -- 88
2019-12-01 16:00:00 4.2 3 Este 24 Nordeste 0.8 -- -- 80
2019-12-01 15:00:00 4.1 9 Este 23 Este 1.2 -- -- 76
2019-12-01 14:00:00 2.5 13 Este 23 Sudeste 1.8 -- -- 87
2019-12-01 13:00:00 4 6 Sudeste 13 Este 0.4 -- -- 91
2019-12-01 12:00:00 0.5 0 Calma -- -- 0 -- -- 99
2019-12-01 11:00:00 0.8 0 Calma -- -- 0 -- -- 99
2019-12-01 10:00:00 0.1 0 Calma -- -- 0 -- -- 100
2019-12-01 09:00:00 -0.3 0 Calma -- -- 0 -- -- 100
2019-12-01 08:00:00 -0.4 0 Calma -- -- 0 -- -- 100
2019-12-01 07:00:00 -0.4 0 Calma -- -- 0 -- -- 100
2019-12-01 06:00:00 -0.3 0 Calma -- -- 0 -- -- 100
2019-12-01 05:00:00 -0.2 0 Calma 5 Sudoeste 0 -- -- 100
2019-12-01 04:00:00 0 3 Oeste 5 Sudoeste 0 -- -- 100
2019-12-01 03:00:00 0 3 Noroeste 17 Oeste 0 -- -- 100
2019-12-01 02:00:00 0 12 Oeste 20 Oeste 0 -- -- 99
2019-12-01 01:00:00 0.2 14 Oeste 19 Oeste 0 -- -- 97
2019-12-01 00:00:00 0.4 11 Oeste 17 Oeste 0 -- -- 94
2019-11-30 23:00:00 0.1 7 Oeste 23 Noroeste 0 -- -- 95
2019-11-30 22:00:00 -0.2 9 Oeste 37 Oeste 0 -- -- 95
2019-11-30 21:00:00 -0.3 26 Oeste 34 Oeste 0 -- -- 95
2019-11-30 20:00:00 0.9 18 Oeste 24 Oeste 0 -- -- 86
2019-11-30 19:00:00 1.1 12 Oeste 30 Oeste 0 -- -- 88
2019-11-30 18:00:00 1.7 18 Oeste 31 Oeste 0 -- -- 92
2019-11-30 17:00:00 4.1 15 Oeste 39 Oeste 0 -- -- 83
2019-11-30 16:00:00 4.5 24 Oeste 58 Oeste 0 -- -- 84
2019-11-30 15:00:00 2.5 33 Oeste 72 Oeste 0.4 -- -- 90
2019-11-30 14:00:00 3.6 30 Oeste 70 Oeste 0.2 -- -- 100
2019-11-30 13:00:00 4.4 43 Oeste 66 Oeste 0.2 -- -- 100
2019-11-30 12:00:00 5.2 52 Oeste 102 Oeste 1.6 -- -- 100
2019-11-30 11:00:00 7.1 30 Oeste 63 Oeste 1.8 -- -- 100
2019-11-30 10:00:00 6.7 38 Oeste 62 Oeste 0.6 -- -- 100
2019-11-30 09:00:00 6.5 40 Oeste 72 Oeste 0.6 -- -- 100
2019-11-30 08:00:00 6.6 45 Oeste 74 Oeste 0.6 -- -- 100
2019-11-30 07:00:00 6.4 42 Oeste 69 Oeste 1 -- -- 100
2019-11-30 06:00:00 6.5 37 Oeste 56 Oeste 0.4 -- -- 100
2019-11-30 05:00:00 6 37 Oeste 53 Oeste 0.2 -- -- 100
2019-11-30 04:00:00 5.6 21 Oeste 36 Oeste 0.6 -- -- 100
2019-11-30 03:00:00 4.5 8 Oeste 20 Noroeste 0.2 -- -- 99
2019-11-30 02:00:00 4.4 5 Norte 18 Noroeste 0 -- -- 99
2019-11-30 01:00:00 4.5 14 Noroeste 21 Noroeste 0 -- -- 96
2019-11-30 00:00:00 4.1 3 Sudoeste 12 Noroeste 0 -- -- 94
2019-11-29 23:00:00 4.1 10 Oeste 23 Sudoeste 0 -- -- 89
2019-11-29 22:00:00 3.7 13 Oeste 17 Oeste 0 -- -- 98
2019-11-29 21:00:00 3.3 11 Oeste 17 Oeste 0 -- -- 99
2019-11-29 20:00:00 3.5 9 Oeste 23 Oeste 0 -- -- 97
2019-11-29 19:00:00 4.7 11 Oeste 15 Sudoeste 0 -- -- 84
2019-11-29 18:00:00 5.2 6 Oeste 13 Sudoeste 0 -- -- 77
2019-11-29 17:00:00 8.5 10 Oeste 18 Oeste 0 -- -- 61
2019-11-29 16:00:00 9.9 13 Oeste 23 Oeste 0 -- -- 57
2019-11-29 15:00:00 9.8 14 Oeste 23 Oeste 0 -- -- 64
2019-11-29 14:00:00 10.3 10 Oeste 17 Oeste 0 -- -- 59
2019-11-29 13:00:00 8.2 8 Oeste 17 Oeste 0 -- -- 68
2019-11-29 12:00:00 7.5 8 Oeste 14 Noroeste 0 -- -- 66
2019-11-29 11:00:00 7.3 7 Oeste 12 Oeste 0 -- -- 65
2019-11-29 10:00:00 5.3 7 Oeste 12 Noroeste 0 -- -- 69
2019-11-29 09:00:00 4 8 Oeste 17 Noroeste 0 -- -- 71
2019-11-29 08:00:00 3.6 10 Noroeste 15 Noroeste 0 -- -- 89
2019-11-29 07:00:00 4 8 Oeste 23 Noroeste 0 -- -- 98
2019-11-29 06:00:00 4.5 19 Noroeste 23 Noroeste 0 -- -- 100
2019-11-29 05:00:00 4.1 16 Noroeste 30 Noroeste 0 -- -- 100
2019-11-29 04:00:00 4.3 21 Noroeste 27 Noroeste 0 -- -- 100
2019-11-29 03:00:00 4.7 21 Noroeste 26 Oeste 0.2 -- -- 100
2019-11-29 02:00:00 4.9 13 Oeste 21 Noroeste 0 -- -- 100
2019-11-29 01:00:00 5.1 13 Oeste 20 Oeste 0.2 -- -- 100
2019-11-29 00:00:00 5.1 11 Oeste 24 Oeste 0.2 -- -- 100
2019-11-28 23:00:00 4.9 13 Oeste 28 Oeste 0 -- -- 100
2019-11-28 22:00:00 5.1 22 Oeste 39 Noroeste 0.2 -- -- 100
2019-11-28 21:00:00 5 25 Oeste 37 Oeste 0.2 -- -- 100
2019-11-28 20:00:00 4.8 22 Oeste 35 Oeste 2.4 -- -- 100
2019-11-28 19:00:00 5 18 Oeste 34 Oeste 2.6 -- -- 100
2019-11-28 18:00:00 5.1 23 Oeste 35 Oeste 1.2 -- -- 100
2019-11-28 17:00:00 5.1 21 Oeste 49 Oeste 2.4 -- -- 100
2019-11-28 16:00:00 5.2 31 Oeste 55 Oeste 3 -- -- 100
2019-11-28 15:00:00 5.2 30 Oeste 71 Oeste 1.4 -- -- 100
2019-11-28 14:00:00 5.2 35 Oeste 56 Oeste 0.4 -- -- 100
2019-11-28 13:00:00 5.3 31 Oeste 55 Oeste 0.4 -- -- 100
2019-11-28 12:00:00 5.1 27 Oeste 50 Oeste 0.4 -- -- 100
2019-11-28 11:00:00 4.8 31 Oeste 46 Oeste 0.2 -- -- 100
2019-11-28 10:00:00 4.6 27 Oeste 39 Oeste 0.2 -- -- 100
2019-11-28 09:00:00 4.2 23 Oeste 35 Oeste 0 -- -- 100
2019-11-28 08:00:00 4 23 Oeste 36 Oeste 0 -- -- 100
2019-11-28 07:00:00 3.8 26 Oeste 37 Oeste 0.2 -- -- 100
2019-11-28 06:00:00 3.4 22 Oeste 38 Oeste 0 -- -- 100
2019-11-28 05:00:00 3.3 27 Oeste 36 Oeste 0 -- -- 100
2019-11-28 04:00:00 3 24 Oeste 38 Noroeste 0 -- -- 100
2019-11-28 03:00:00 3.2 26 Oeste 42 Oeste 0.2 -- -- 100
2019-11-28 02:00:00 3.1 27 Oeste 41 Oeste 0.2 -- -- 100
2019-11-28 01:00:00 2.9 23 Oeste 38 Oeste 0.2 -- -- 100
2019-11-28 00:00:00 2.8 24 Oeste 39 Oeste 0 -- -- 100
2019-11-27 23:00:00 2.8 28 Oeste 44 Oeste 0.2 -- -- 100
2019-11-27 22:00:00 2.6 28 Oeste 53 Oeste 0.4 -- -- 100
2019-11-27 21:00:00 2.4 38 Oeste 61 Oeste 0 -- -- 100
2019-11-27 20:00:00 2.2 28 Oeste 52 Oeste 0 -- -- 100
2019-11-27 19:00:00 2.5 23 Oeste 45 Oeste 0.2 -- -- 100
2019-11-27 18:00:00 2.5 34 Oeste 54 Oeste 0 -- -- 100
2019-11-27 17:00:00 2.7 30 Oeste 49 Oeste 0 -- -- 100
2019-11-27 16:00:00 2.6 28 Oeste 50 Oeste 0.4 -- -- 100
2019-11-27 15:00:00 2.7 19 Oeste 58 Oeste 1.8 -- -- 100
2019-11-27 14:00:00 3 27 Oeste 49 Oeste 1.6 -- -- 100
2019-11-27 06:00:00 -- -- -- -- -- -- -- -- --
2019-11-27 05:00:00 1.3 35 Oeste 55 Oeste 0.2 -- -- 100
2019-11-27 04:00:00 1.4 37 Oeste 60 Oeste 0 -- -- 100
2019-11-27 03:00:00 1.3 38 Oeste 63 Oeste 0 -- -- 99
2019-11-27 02:00:00 1.3 39 Oeste 88 Oeste 0 -- -- 97
2019-11-27 01:00:00 1.7 45 Oeste 73 Oeste 0 -- -- 95
2019-11-27 00:00:00 2.1 43 Oeste 72 Oeste 0 -- -- 93
2019-11-26 23:00:00 2.4 35 Oeste 76 Sudoeste 0 -- -- 98
2019-11-26 22:00:00 3 51 Oeste 84 Oeste 0 -- -- 98
2019-11-26 21:00:00 3.8 58 Oeste 90 Oeste 0.8 -- -- 96
2019-11-26 20:00:00 4.7 57 Oeste 119 Oeste 2.2 -- -- 97
2019-11-26 19:00:00 5.3 68 Oeste 124 Oeste 0 -- -- 95
2019-11-26 18:00:00 6.3 66 Oeste 130 Oeste 0 -- -- 86
2019-11-26 17:00:00 6.9 55 Oeste 97 Oeste 0 -- -- 82
2019-11-26 16:00:00 7 58 Oeste 101 Oeste 0 -- -- 90
2019-11-26 15:00:00 6.5 58 Oeste 100 Sudoeste 0 -- -- 95
2019-11-26 14:00:00 6.6 63 Oeste 108 Oeste 0 -- -- 100
2019-11-26 13:00:00 6.8 58 Oeste 82 Oeste 0.6 -- -- 100
2019-11-26 12:00:00 6.5 45 Oeste 71 Oeste 0.2 -- -- 100
2019-11-26 11:00:00 6.5 39 Oeste 71 Sudoeste 0.4 -- -- 100
2019-11-26 10:00:00 5.7 22 Oeste 54 Oeste 0.8 -- -- 100
2019-11-26 09:00:00 5.2 21 Oeste 35 Oeste 0.8 -- -- 100
2019-11-26 08:00:00 4.9 23 Oeste 40 Oeste 0 -- -- 100
2019-11-26 07:00:00 4.3 26 Oeste 36 Oeste 0.2 -- -- 100
2019-11-26 06:00:00 3.6 17 Oeste 32 Oeste 0 -- -- 100
2019-11-26 05:00:00 3.2 19 Oeste 33 Oeste 0 -- -- 100
2019-11-26 04:00:00 3.2 22 Oeste 31 Oeste 0 -- -- 100
2019-11-26 03:00:00 3.3 19 Oeste 24 Oeste 0 -- -- 100
2019-11-26 02:00:00 3.2 14 Oeste 26 Oeste 0 -- -- 100
2019-11-26 01:00:00 2.8 16 Oeste 33 Oeste 0 -- -- 100
2019-11-26 00:00:00 3.1 16 Oeste 31 Oeste 0 -- -- 100
2019-11-25 23:00:00 3.1 26 Oeste 34 Oeste 0 -- -- 100
2019-11-25 22:00:00 3 20 Oeste 26 Oeste 0 -- -- 100
2019-11-25 21:00:00 3.7 15 Oeste 25 Oeste 0 -- -- 97
2019-11-25 20:00:00 3.6 19 Oeste 32 Oeste 0 -- -- 100
2019-11-25 19:00:00 3.6 19 Oeste 28 Oeste 0 -- -- 100
2019-11-25 18:00:00 4 15 Oeste 29 Oeste 0 -- -- 100
2019-11-25 17:00:00 4.4 20 Oeste 29 Noroeste 0 -- -- 100
2019-11-25 16:00:00 4.8 21 Oeste 30 Noroeste 0 -- -- 100
2019-11-25 15:00:00 4.9 22 Noroeste 32 Noroeste 0 -- -- 100
2019-11-25 14:00:00 5.9 18 Oeste 33 Oeste 0 -- -- 96
2019-11-25 13:00:00 4.5 18 Oeste 27 Oeste 0 -- -- 100
2019-11-25 12:00:00 4.3 18 Oeste 28 Oeste 0 -- -- 100
2019-11-25 11:00:00 4.2 15 Oeste 23 Oeste 0.2 -- -- 100
2019-11-25 10:00:00 3.8 13 Noroeste 27 Oeste 0 -- -- 100
2019-11-25 09:00:00 3.6 16 Oeste 28 Oeste 0 -- -- 100
2019-11-25 08:00:00 3.3 12 Oeste 26 Noroeste 0 -- -- 100
2019-11-25 07:00:00 3.5 17 Oeste 24 Oeste 0.2 -- -- 100
2019-11-25 06:00:00 3.6 18 Oeste 32 Oeste 0 -- -- 100
2019-11-25 05:00:00 3.5 10 Oeste 24 Sudoeste 0 -- -- 100
2019-11-25 04:00:00 3.1 14 Oeste 21 Oeste 0 -- -- 100
2019-11-25 03:00:00 3.6 17 Oeste 39 Oeste 0 -- -- 100
2019-11-25 02:00:00 3 17 Oeste 27 Sudoeste 0 -- -- 100
2019-11-25 01:00:00 3 19 Oeste 36 Oeste 0 -- -- 100
2019-11-25 00:00:00 2.8 24 Oeste 37 Oeste 0.2 -- -- 100
2019-11-24 23:00:00 2.6 24 Oeste 36 Noroeste 0 -- -- 100
2019-11-24 22:00:00 2.1 22 Oeste 38 Oeste 0.2 -- -- 100
2019-11-24 21:00:00 1.4 22 Oeste 36 Oeste 0.2 -- -- 100
2019-11-24 20:00:00 1.1 17 Oeste 33 Oeste 0.2 -- -- 100
2019-11-24 19:00:00 0.4 14 Oeste 23 Oeste 0.6 -- -- 100
2019-11-24 18:00:00 0.1 15 Oeste 26 Oeste 0.4 -- -- 100
2019-11-24 17:00:00 0.2 17 Oeste 32 Oeste 0.8 -- -- 100
2019-11-24 16:00:00 0.2 27 Oeste 41 Oeste 0 -- -- 99
2019-11-24 15:00:00 1.2 23 Oeste 33 Oeste 0.2 -- -- 97
2019-11-24 14:00:00 0.3 23 Oeste 33 Oeste 0.2 -- -- 99
2019-11-24 13:00:00 0.9 12 Oeste 25 Noroeste 0 -- -- 98
2019-11-24 12:00:00 0.5 16 Oeste 22 Noroeste 0 -- -- 99
2019-11-24 11:00:00 0.6 11 Oeste 19 Oeste 0.2 -- -- 98
2019-11-24 10:00:00 -0.2 15 Noroeste 19 Oeste 0 -- -- 100
2019-11-24 09:00:00 -0.7 10 Oeste 21 Noroeste 0 -- -- 100
2019-11-24 08:00:00 -0.8 21 Noroeste 34 Norte 0 -- -- 100
2019-11-24 07:00:00 -0.7 15 Oeste 29 Oeste 0 -- -- 100
2019-11-24 06:00:00 -0.8 21 Noroeste 32 Noroeste 0 -- -- 100
2019-11-24 05:00:00 -0.9 16 Oeste 23 Oeste 0 -- -- 100
2019-11-24 04:00:00 -0.9 14 Oeste 37 Oeste 0 -- -- 100
2019-11-24 03:00:00 -0.9 21 Oeste 32 Noroeste 0 -- -- 100
2019-11-24 02:00:00 -0.8 23 Oeste 39 Oeste 0 -- -- 100
2019-11-24 01:00:00 -0.8 22 Oeste 35 Oeste 0 -- -- 100
2019-11-24 00:00:00 -0.8 20 Oeste 41 Noroeste 0 -- -- 100
2019-11-23 23:00:00 -0.9 22 Oeste 33 Oeste 0 -- -- 100
2019-11-23 22:00:00 -0.9 23 Noroeste 59 Noroeste 0 -- -- 99
2019-11-23 21:00:00 -0.7 32 Noroeste 67 Norte 0 -- -- 98
2019-11-23 20:00:00 -0.8 31 Noroeste 64 Norte 0 -- -- 98
2019-11-23 19:00:00 -0.9 25 Noroeste 48 Noroeste 0 -- -- 99
2019-11-23 18:00:00 -0.8 30 Noroeste 51 Noroeste 0 -- -- 100
2019-11-23 17:00:00 -0.3 26 Noroeste 53 Noroeste 0 -- -- 100
2019-11-23 16:00:00 -0.2 21 Noroeste 35 Noroeste 0 -- -- 100
2019-11-23 15:00:00 -0.5 21 Noroeste 34 Noroeste 0 -- -- 100
2019-11-23 14:00:00 -0.4 12 Oeste 26 Noroeste 0.4 -- -- 100
2019-11-23 13:00:00 -0.7 14 Oeste 24 Oeste 0.8 -- -- 99
2019-11-23 12:00:00 -0.9 16 Oeste 49 Norte 1 -- -- 99
2019-11-23 11:00:00 -0.6 15 Noroeste 35 Oeste 0 -- -- 99
2019-11-23 10:00:00 -1.3 18 Oeste 31 Noroeste 0 -- -- 100
2019-11-23 09:00:00 -2.1 8 Noroeste 40 Norte 0 -- -- 99
2019-11-23 08:00:00 -1.4 15 Oeste 37 Noroeste 0 -- -- 100
2019-11-23 07:00:00 -1.1 10 Noroeste 39 Noroeste 0 -- -- 100
2019-11-23 06:00:00 -0.8 6 Oeste 48 Noroeste 0 -- -- 100
2019-11-23 05:00:00 -0.7 24 Noroeste 53 Noroeste 0 -- -- 100
2019-11-23 04:00:00 -0.8 23 Noroeste 40 Oeste 0 -- -- 100
2019-11-23 03:00:00 -0.2 19 Oeste 36 Oeste 0 -- -- 100
2019-11-23 02:00:00 0.3 22 Oeste 47 Oeste 0.2 -- -- 100
2019-11-23 01:00:00 0.7 33 Oeste 64 Oeste 0.2 -- -- 100
2019-11-23 00:00:00 1 47 Oeste 88 Oeste 0.4 -- -- 100
2019-11-22 23:00:00 1.3 56 Oeste 89 Oeste 0.6 -- -- 99
2019-11-22 22:00:00 1.4 45 Oeste 70 Oeste 0.6 -- -- 100
2019-11-22 21:00:00 1.1 35 Oeste 60 Oeste 0.6 -- -- 100
2019-11-22 20:00:00 1.2 34 Oeste 63 Oeste 0.4 -- -- 99
2019-11-22 19:00:00 1.9 32 Oeste 69 Oeste 0 -- -- 95
2019-11-22 18:00:00 2 44 Oeste 65 Oeste 0 -- -- 100
2019-11-22 17:00:00 2.4 38 Oeste 63 Oeste 0.4 -- -- 100
2019-11-22 16:00:00 3.9 43 Oeste 90 Oeste 4 -- -- 100
2019-11-22 15:00:00 4 45 Oeste 81 Oeste 4 -- -- 100
2019-11-22 14:00:00 4.4 47 Oeste 71 Oeste 8.8 -- -- 100
2019-11-22 13:00:00 2.6 32 Sudoeste 51 Sudoeste 7 -- -- 100
2019-11-22 12:00:00 1.6 15 Sudoeste 28 Sudoeste 6.6 -- -- 100
2019-11-22 11:00:00 0.7 11 Sudoeste 26 Sudoeste 3.8 -- -- 100
2019-11-22 10:00:00 0 0 Calma -- -- 0 -- -- 100
2019-11-22 09:00:00 -0.2 4 Sudoeste 44 Oeste 0 -- -- 100
2019-11-22 08:00:00 -0.1 26 Oeste 51 Sudoeste 0 -- -- 100
2019-11-22 07:00:00 -0.2 18 Oeste 30 Oeste 0 -- -- 100
2019-11-22 06:00:00 -0.2 23 Oeste 58 Oeste 0 -- -- 99
2019-11-22 05:00:00 -0.1 36 Oeste 68 Oeste 0 -- -- 97
2019-11-22 04:00:00 0.4 45 Oeste 67 Oeste 0.2 -- -- 97
2019-11-22 03:00:00 0.5 39 Oeste 56 Oeste 0 -- -- 96
2019-11-22 02:00:00 0.4 33 Oeste 52 Oeste 0 -- -- 96
2019-11-22 01:00:00 0.2 26 Oeste 45 Oeste 0 -- -- 94
2019-11-22 00:00:00 0.2 25 Oeste 41 Oeste 0 -- -- 93
2019-11-21 23:00:00 0.2 22 Oeste 40 Oeste 0 -- -- 94
2019-11-21 22:00:00 -0.1 17 Oeste 32 Oeste 0 -- -- 93
2019-11-21 21:00:00 0.2 10 Oeste 18 Sudoeste 0 -- -- 90
2019-11-21 20:00:00 0.2 4 Oeste 17 Oeste 0 -- -- 93
2019-11-21 19:00:00 0.3 6 Oeste 14 Oeste 0 -- -- 92
2019-11-21 18:00:00 0.2 8 Oeste 14 Oeste 0 -- -- 91
2019-11-21 17:00:00 0.7 14 Oeste 34 Oeste 0 -- -- 89
2019-11-21 16:00:00 0.8 17 Oeste 28 Oeste 0 -- -- 90
2019-11-21 15:00:00 3.1 9 Oeste 26 Oeste 0 -- -- 94
2019-11-21 14:00:00 2.7 16 Oeste 33 Oeste 1 -- -- 93
2019-11-21 13:00:00 2.7 0 Calma -- -- 1.2 -- -- 93
2019-11-21 12:00:00 0.4 0 Calma -- -- 1 -- -- 98
2019-11-21 11:00:00 1.5 0 Calma -- -- 1.6 -- -- 95
2019-11-21 10:00:00 -0.1 0 Calma -- -- 0 -- -- 100
2019-11-21 09:00:00 -0.5 0 Calma -- -- 0 -- -- 100
2019-11-21 08:00:00 -0.4 0 Calma -- -- 0 -- -- 100
2019-11-21 07:00:00 -0.4 0 Calma -- -- 0 -- -- 100
2019-11-21 06:00:00 -0.5 0 Calma -- -- 0 -- -- 100
2019-11-21 05:00:00 -0.5 0 Calma -- -- 0 -- -- 100
2019-11-21 04:00:00 -0.1 0 Calma 35 Oeste 0 -- -- 100
2019-11-21 03:00:00 -0.1 22 Oeste 39 Oeste 0 -- -- 100
2019-11-21 02:00:00 -0.1 14 Oeste 36 Oeste 0 -- -- 100
2019-11-21 01:00:00 -0.1 19 Oeste 36 Oeste 0 -- -- 100
2019-11-21 00:00:00 -0.1 6 Oeste 33 Oeste 0 -- -- 100
2019-11-20 23:00:00 -0.2 0 Calma -- -- 0 -- -- 100
2019-11-20 22:00:00 -0.3 0 Calma -- -- 0 -- -- 100
2019-11-20 21:00:00 -0.2 0 Calma 23 Oeste 0 -- -- 100
2019-11-20 20:00:00 -0.1 12 Oeste 24 Oeste 0 -- -- 100
2019-11-20 19:00:00 -0.1 13 Oeste 24 Oeste 0.2 -- -- 100
2019-11-20 18:00:00 -0.1 13 Oeste 28 Oeste 0.2 -- -- 100
2019-11-20 17:00:00 0.2 3 Oeste 8 Oeste 0 -- -- 99
2019-11-20 16:00:00 0.3 3 Noroeste 13 Noroeste 0.6 -- -- 99
2019-11-20 15:00:00 0 9 Noroeste 13 Oeste 0.6 -- -- 100
2019-11-20 14:00:00 0.5 9 Oeste 21 Oeste 0.2 -- -- 98
2019-11-20 13:00:00 1 10 Sudoeste 15 Sudoeste 0 -- -- 99
2019-11-20 12:00:00 0.9 5 Oeste 10 Oeste 0.4 -- -- 99
2019-11-20 11:00:00 0.5 4 Oeste 19 Sudoeste 0.2 -- -- 99
2019-11-20 10:00:00 0.2 7 Sudoeste 13 Oeste 0.6 -- -- 100
2019-11-20 09:00:00 0 0 Calma 5 Oeste 0 -- -- 100
2019-11-20 08:00:00 0 0 Calma 9 Noroeste 0 -- -- 100
2019-11-20 07:00:00 0.1 6 Noroeste 7 Noroeste 0 -- -- 100
2019-11-20 06:00:00 0 0 Calma -- -- 0 -- -- 100
2019-11-20 05:00:00 -0.1 0 Calma -- -- 0 -- -- 100
2019-11-20 04:00:00 -0.6 0 Calma 10 Sudoeste 0 -- -- 100
2019-11-20 03:00:00 -0.6 8 Oeste 19 Oeste 0 -- -- 99
2019-11-20 02:00:00 -0.8 13 Oeste 17 Oeste 0 -- -- 99
2019-11-20 01:00:00 -0.9 12 Oeste 24 Oeste 0 -- -- 99
2019-11-20 00:00:00 -1.3 17 Oeste 25 Oeste 0 -- -- 99
2019-11-19 23:00:00 -1.6 18 Oeste 24 Oeste 0 -- -- 96
2019-11-19 22:00:00 -1.4 8 Noroeste 14 Oeste 0 -- -- 94
2019-11-19 21:00:00 -1.5 8 Oeste 17 Noroeste 0 -- -- 96
2019-11-19 20:00:00 -1.4 15 Oeste 20 Oeste 0 -- -- 96
2019-11-19 19:00:00 -1.1 18 Oeste 21 Noroeste 0 -- -- 90
2019-11-19 18:00:00 -0.3 12 Oeste 21 Noroeste 0 -- -- 77
2019-11-19 17:00:00 0 19 Noroeste 23 Noroeste 0 -- -- 84
2019-11-19 16:00:00 1.2 13 Oeste 19 Oeste 0 -- -- 76
2019-11-19 15:00:00 2.1 11 Oeste 23 Oeste 0.4 -- -- 73
2019-11-19 14:00:00 2 11 Oeste 19 Oeste 0.4 -- -- 77
2019-11-19 13:00:00 1.2 8 Oeste 21 Oeste 0.2 -- -- 82
2019-11-19 12:00:00 0.3 9 Oeste 18 Noroeste 0 -- -- 85
2019-11-19 11:00:00 -1.7 7 Oeste 12 Noroeste 0 -- -- 92
2019-11-19 10:00:00 -1.6 9 Noroeste 15 Noroeste 0 -- -- 92
2019-11-19 09:00:00 -2.4 11 Noroeste 19 Noroeste 0 -- -- 95
2019-11-19 08:00:00 -2.6 19 Noroeste 23 Oeste 0 -- -- 98
2019-11-19 07:00:00 -2.9 17 Oeste 21 Oeste 0 -- -- 99
2019-11-19 06:00:00 -3.1 17 Noroeste 20 Noroeste 0 -- -- 99
2019-11-19 05:00:00 -3.4 13 Noroeste 17 Noroeste 0 -- -- 97
2019-11-19 04:00:00 -3.3 0 Calma 7 Oeste 0 -- -- 99
2019-11-19 03:00:00 -3.6 0 Calma -- -- 0 -- -- 98
2019-11-19 02:00:00 -3 0 Calma -- -- 0 -- -- 100
2019-11-19 01:00:00 -2.6 0 Calma 8 Oeste 0 -- -- 99
2019-11-19 00:00:00 -2.2 2 Noroeste 9 Noroeste 0 -- -- 99
2019-11-18 23:00:00 -2.1 4 Noroeste 9 Noroeste 0.2 -- -- 99
2019-11-18 22:00:00 -2.1 6 Oeste 11 Oeste 0 -- -- 99
2019-11-18 21:00:00 -2.1 4 Norte 13 Noroeste 0 -- -- 100
2019-11-18 20:00:00 -1.7 10 Oeste 20 Oeste 0 -- -- 99
2019-11-18 19:00:00 -1.4 8 Oeste 18 Oeste 0 -- -- 97
2019-11-18 18:00:00 -1.1 13 Oeste 26 Noroeste 0 -- -- 94
2019-11-18 17:00:00 1.2 14 Oeste 23 Oeste 0.4 -- -- 81
2019-11-18 16:00:00 3.4 9 Oeste 19 Oeste 1.2 -- -- 76
2019-11-18 15:00:00 1.8 13 Oeste 22 Oeste 3.2 -- -- 83
2019-11-18 14:00:00 4 13 Oeste 23 Oeste 1.4 -- -- 76
2019-11-18 13:00:00 2.7 11 Oeste 17 Oeste 0 -- -- 86
2019-11-18 12:00:00 4.1 4 Oeste 12 Oeste 0 -- -- 87
2019-11-18 11:00:00 -0.2 9 Oeste 22 Oeste 0 -- -- 99
2019-11-18 10:00:00 -- -- -- -- -- -- -- -- --
2019-11-18 09:00:00 -1.7 7 Noroeste 13 Oeste 0 -- -- 100
2019-11-18 08:00:00 -1.7 12 Oeste 19 Noroeste 0 -- -- 99
2019-11-18 07:00:00 -1.8 10 Oeste 21 Oeste 0 -- -- 99
2019-11-18 06:00:00 -1.9 9 Oeste 14 Noroeste 0 -- -- 99
2019-11-18 05:00:00 -1.8 9 Noroeste 16 Norte 0 -- -- 99
2019-11-18 04:00:00 -1.3 7 Oeste 13 Oeste 0 -- -- 97
2019-11-18 03:00:00 -1.4 8 Oeste 20 Oeste 0 -- -- 100
2019-11-18 02:00:00 -1.2 14 Oeste 21 Oeste 0 -- -- 99
2019-11-18 01:00:00 -1.1 9 Sudoeste 22 Oeste 0 -- -- 100
2019-11-18 00:00:00 -1.1 8 Oeste 14 Sudoeste 0 -- -- 99
2019-11-17 23:00:00 -1.3 6 Oeste 15 Oeste 0 -- -- 100
2019-11-17 22:00:00 -1.3 8 Oeste 19 Sudoeste 0 -- -- 100
2019-11-17 21:00:00 -1.2 10 Oeste 29 Oeste 0 -- -- 100
2019-11-17 20:00:00 -1.3 21 Oeste 32 Noroeste 0 -- -- 100
2019-11-17 19:00:00 -1.1 14 Sudoeste 26 Oeste 0 -- -- 99
2019-11-17 18:00:00 -1 19 Oeste 37 Noroeste 0 -- -- 100
2019-11-17 17:00:00 -0.4 20 Oeste 35 Noroeste 0 -- -- 100
2019-11-17 16:00:00 0.7 20 Noroeste 40 Noroeste 0 -- -- 98
2019-11-17 15:00:00 1.7 17 Oeste 30 Oeste 0 -- -- 95
2019-11-17 14:00:00 0.5 17 Oeste 31 Oeste 0 -- -- 98
2019-11-17 13:00:00 0.3 0 Calma -- -- 0 -- -- 99
2019-11-17 12:00:00 0.2 0 Calma 0 Calma 0 -- -- 99
2019-11-17 11:00:00 -0.1 0 Calma -- -- 0 -- -- 100
2019-11-17 10:00:00 -0.5 0 Calma -- -- 0 -- -- 100
2019-11-17 09:00:00 -0.9 0 Calma -- -- 0 -- -- 100
2019-11-17 08:00:00 -0.9 0 Calma -- -- 0 -- -- 100
2019-11-17 07:00:00 -0.7 0 Calma -- -- 0 -- -- 100
2019-11-17 06:00:00 -0.6 0 Calma 4 Sudoeste 0 -- -- 100
2019-11-17 05:00:00 -0.9 4 Oeste 12 Noroeste 0 -- -- 100
2019-11-17 04:00:00 -0.6 10 Oeste 18 Noroeste 0 -- -- 100
2019-11-17 03:00:00 -1.3 11 Oeste 14 Oeste 0 -- -- 99
2019-11-17 02:00:00 -1.9 11 Oeste 13 Noroeste 0 -- -- 99
2019-11-17 01:00:00 -2.3 8 Oeste 15 Oeste 0 -- -- 99
2019-11-17 00:00:00 -2.4 12 Oeste 17 Oeste 0 -- -- 99
2019-11-16 23:00:00 -2.4 9 Oeste 19 Oeste 0 -- -- 99
2019-11-16 22:00:00 -2.8 10 Oeste 17 Oeste 0 -- -- 98
2019-11-16 21:00:00 -2.7 14 Oeste 21 Noroeste 0 -- -- 98
2019-11-16 20:00:00 -2.6 6 Oeste 14 Oeste 0 -- -- 99
2019-11-16 19:00:00 -2.5 10 Oeste 21 Oeste 0 -- -- 98
2019-11-16 18:00:00 -2.7 8 Oeste 26 Noroeste 0 -- -- 98
2019-11-16 17:00:00 -1.5 15 Noroeste 30 Noroeste 0 -- -- 98
2019-11-16 16:00:00 -1.2 10 Oeste 16 Oeste 0 -- -- 99
2019-11-16 15:00:00 -0.7 7 Oeste 17 Oeste 0 -- -- 98
2019-11-16 14:00:00 -1.5 10 Oeste 29 Oeste 0 -- -- 99
2019-11-16 13:00:00 -0.1 16 Oeste 26 Noroeste 0 -- -- 97
2019-11-16 12:00:00 0.3 18 Noroeste 27 Oeste 0 -- -- 96
2019-11-16 11:00:00 -0.5 12 Oeste 23 Oeste 0 -- -- 98
2019-11-16 10:00:00 -1.9 12 Oeste 20 Oeste 0 -- -- 98
2019-11-16 09:00:00 -2.5 10 Oeste 22 Noroeste 0 -- -- 98
2019-11-16 08:00:00 -3.1 16 Oeste 25 Oeste 0 -- -- 98
2019-11-16 07:00:00 -4.1 7 Oeste 11 Noroeste 0 -- -- 97
2019-11-16 06:00:00 -4.4 6 Oeste 14 Oeste 0 -- -- 97
2019-11-16 05:00:00 -4.3 8 Oeste 17 Oeste 0 -- -- 97
2019-11-16 04:00:00 -4.1 6 Oeste 12 Oeste 0 -- -- 97
2019-11-16 03:00:00 -4 8 Noroeste 13 Noroeste 0 -- -- 97
2019-11-16 02:00:00 -- -- -- -- -- -- -- -- --
2019-11-16 01:00:00 -3.9 6 Noroeste 12 Noroeste 0 -- -- 97
2019-11-16 00:00:00 -3.9 5 Oeste 10 Noroeste 0 -- -- 97
2019-11-15 23:00:00 -3.8 3 Norte 13 Sudoeste 0 -- -- 98
2019-11-15 22:00:00 -3.6 5 Sudoeste 14 Norte 0 -- -- 98
2019-11-15 21:00:00 -3.6 6 Noroeste 14 Norte 0 -- -- 98
2019-11-15 20:00:00 -3 6 Noroeste 15 Noroeste 0 -- -- 98
2019-11-15 19:00:00 -2.9 2 Noroeste 15 Noroeste 0 -- -- 98
2019-11-15 18:00:00 -2.8 7 Noroeste 17 Oeste 0 -- -- 99
2019-11-15 17:00:00 -2.5 8 Oeste 18 Oeste 0 -- -- 99
2019-11-15 16:00:00 -2.1 9 Oeste 22 Oeste 0 -- -- 98
2019-11-15 15:00:00 -1.9 11 Oeste 20 Oeste 0 -- -- 97
2019-11-15 14:00:00 -2.1 13 Oeste 22 Oeste 0 -- -- 97
2019-11-15 13:00:00 -1.4 10 Oeste 21 Norte 0.2 -- -- 96
2019-11-15 12:00:00 -1.5 6 Noroeste 32 Norte 0 -- -- 97
2019-11-15 11:00:00 -2 12 Norte 45 Norte 0 -- -- 97
2019-11-15 10:00:00 -2.4 12 Norte 33 Norte 0 -- -- 98
2019-11-15 09:00:00 -2.8 18 Noroeste 42 Norte 0 -- -- 98
2019-11-15 08:00:00 -2.6 13 Noroeste 25 Noroeste 0 -- -- 98
2019-11-15 07:00:00 -2.7 11 Norte 29 Norte 0 -- -- 98
2019-11-15 06:00:00 -3 7 Noroeste 19 Noroeste 0 -- -- 98
2019-11-15 05:00:00 -2.9 12 Noroeste 23 Noroeste 0 -- -- 98
2019-11-15 04:00:00 -2.7 0 Calma 24 Noroeste 0 -- -- 98
2019-11-15 03:00:00 -2.8 15 Noroeste 28 Noroeste 0 -- -- 98
2019-11-15 02:00:00 -2.8 12 Noroeste 21 Noroeste 0 -- -- 98
2019-11-15 01:00:00 -2.9 12 Noroeste 22 Noroeste 0 -- -- 98
2019-11-15 00:00:00 -3.5 14 Oeste 27 Oeste 0 -- -- 98
2019-11-14 23:00:00 -3.6 14 Oeste 25 Norte 0 -- -- 98
2019-11-14 22:00:00 -3.7 10 Noroeste 30 Noroeste 0 -- -- 97
2019-11-14 21:00:00 -3.5 17 Norte 37 Norte 0 -- -- 97
2019-11-14 20:00:00 -3.2 10 Norte 30 Noroeste 0 -- -- 98
2019-11-14 19:00:00 -2.8 15 Oeste 20 Oeste 0 -- -- 98
2019-11-14 18:00:00 -2.7 11 Noroeste 28 Oeste 0 -- -- 98
2019-11-14 17:00:00 -2.3 16 Oeste 24 Oeste 0 -- -- 97
2019-11-14 16:00:00 -2.4 12 Noroeste 23 Oeste 0 -- -- 97
2019-11-14 15:00:00 -2.4 16 Oeste 29 Oeste 0 -- -- 95
2019-11-14 14:00:00 -1.8 20 Oeste 37 Oeste 0 -- -- 93
2019-11-14 13:00:00 -1.6 23 Oeste 42 Oeste 0.4 -- -- 88
2019-11-14 12:00:00 -1.9 25 Oeste 43 Oeste 0.2 -- -- 85
2019-11-14 11:00:00 -1.5 23 Oeste 33 Oeste 0.8 -- -- 81
2019-11-14 10:00:00 -2.5 18 Oeste 49 Noroeste 0 -- -- 83
2019-11-14 09:00:00 -3.5 36 Noroeste 58 Noroeste 0 -- -- 82
2019-11-14 08:00:00 -3.9 35 Noroeste 63 Noroeste 0 -- -- 89
2019-11-14 07:00:00 -4.1 28 Noroeste 50 Noroeste 0 -- -- 96
2019-11-14 06:00:00 -4.1 27 Noroeste 56 Noroeste 0 -- -- 97
2019-11-14 05:00:00 -2.9 0 Calma -- -- 0 -- -- 99
2019-11-14 04:00:00 -1.9 0 Calma -- -- 0 -- -- 99
2019-11-14 03:00:00 -1.1 0 Calma 22 Norte 0 -- -- 99
2019-11-14 02:00:00 0.3 21 Noroeste 41 Oeste 0.4 -- -- 99
2019-11-14 01:00:00 0.3 31 Oeste 53 Oeste 0.6 -- -- 99
2019-11-14 00:00:00 0.7 30 Oeste 54 Oeste 0 -- -- 97
2019-11-13 23:00:00 0.9 27 Oeste 48 Oeste 0 -- -- 95
2019-11-13 22:00:00 0.5 29 Oeste 43 Noroeste 0 -- -- 98
2019-11-13 21:00:00 0.8 23 Oeste 35 Oeste 0 -- -- 98
2019-11-13 20:00:00 1.7 23 Oeste 37 Oeste 0 -- -- 96
2019-11-13 19:00:00 2.1 19 Oeste 28 Oeste 0 -- -- 96
2019-11-13 18:00:00 2.9 17 Oeste 27 Oeste 0 -- -- 91
2019-11-13 17:00:00 4 12 Oeste 20 Oeste 0 -- -- 83
2019-11-13 16:00:00 4.2 10 Oeste 18 Oeste 0 -- -- 84
2019-11-13 15:00:00 4.3 13 Oeste 28 Oeste 0 -- -- 85
2019-11-13 14:00:00 3.4 22 Oeste 35 Noroeste 0 -- -- 88
2019-11-13 13:00:00 4.3 20 Oeste 30 Oeste 0 -- -- 86
2019-11-13 12:00:00 4.9 13 Oeste 29 Noroeste 0 -- -- 84
2019-11-13 11:00:00 4.4 12 Oeste 22 Oeste 0 -- -- 87
2019-11-13 10:00:00 3.8 14 Oeste 24 Oeste 0 -- -- 90
2019-11-13 09:00:00 1.6 13 Oeste 19 Oeste 0 -- -- 99
2019-11-13 08:00:00 1.7 8 Oeste 15 Oeste 0 -- -- 100
2019-11-13 07:00:00 1.6 3 Oeste 8 Sudoeste 0 -- -- 100
2019-11-13 06:00:00 1.9 6 Oeste 15 Sudeste 0 -- -- 100
2019-11-13 05:00:00 2 5 Sudeste 14 Sudeste 0 -- -- 100
2019-11-13 04:00:00 2.2 4 Oeste 19 Noroeste 0 -- -- 99
2019-11-13 03:00:00 2.8 15 Noroeste 22 Noroeste 0.6 -- -- 100
2019-11-13 02:00:00 2.1 15 Oeste 23 Oeste 3.8 -- -- 100
2019-11-13 01:00:00 2.3 14 Noroeste 24 Oeste 2.4 -- -- 100
2019-11-13 00:00:00 1.8 14 Oeste 22 Oeste 3.6 -- -- 100
2019-11-12 23:00:00 2 16 Noroeste 23 Noroeste 2 -- -- 100
2019-11-12 22:00:00 1.4 13 Oeste 23 Oeste 2.8 -- -- 100
2019-11-12 21:00:00 1.4 13 Noroeste 17 Noroeste 3 -- -- 100
2019-11-12 20:00:00 0.7 12 Oeste 24 Oeste 2.2 -- -- 100
2019-11-12 19:00:00 0 15 Oeste 23 Oeste 0.2 -- -- 100
2019-11-12 18:00:00 0.2 17 Oeste 30 Oeste 1 -- -- 100
2019-11-12 17:00:00 1 15 Oeste 28 Oeste 0.6 -- -- 99
2019-11-12 16:00:00 1.3 13 Oeste 20 Oeste 0.6 -- -- 98
2019-11-12 15:00:00 2.1 9 Oeste 23 Oeste 0 -- -- 93
2019-11-12 14:00:00 1.8 17 Oeste 36 Noroeste 0 -- -- 92
2019-11-12 13:00:00 3.1 22 Oeste 35 Noroeste 0.2 -- -- 85
2019-11-12 12:00:00 2.3 17 Oeste 32 Oeste 0 -- -- 90
2019-11-12 11:00:00 1.3 12 Oeste 30 Oeste 0 -- -- 96
2019-11-12 10:00:00 -0.4 18 Oeste 28 Noroeste 0 -- -- 100
2019-11-12 09:00:00 -0.9 19 Oeste 27 Oeste 0 -- -- 99
2019-11-12 08:00:00 -1 16 Oeste 27 Noroeste 0 -- -- 99
2019-11-12 07:00:00 -0.9 21 Oeste 29 Oeste 0 -- -- 99
2019-11-12 06:00:00 -0.9 20 Oeste 26 Noroeste 0 -- -- 99
2019-11-12 05:00:00 -0.9 9 Oeste 27 Oeste 0 -- -- 98
2019-11-12 04:00:00 -1 15 Oeste 22 Noroeste 0 -- -- 98
2019-11-12 03:00:00 -1 12 Oeste 31 Oeste 0 -- -- 99
2019-11-12 02:00:00 -0.8 17 Noroeste 24 Noroeste 0 -- -- 99
2019-11-12 01:00:00 -0.9 15 Oeste 27 Noroeste 0 -- -- 97
2019-11-12 00:00:00 -0.5 16 Noroeste 22 Noroeste 0 -- -- 91
2019-11-11 23:00:00 -0.9 18 Noroeste 24 Oeste 0 -- -- 95
2019-11-11 22:00:00 -0.9 11 Noroeste 19 Noroeste 0 -- -- 99
2019-11-11 21:00:00 -1.1 14 Oeste 27 Oeste 0 -- -- 99
2019-11-11 20:00:00 -1 12 Oeste 28 Oeste 0 -- -- 99
2019-11-11 19:00:00 -0.9 18 Oeste 26 Oeste 0 -- -- 98
2019-11-11 18:00:00 -0.4 19 Oeste 28 Oeste 0 -- -- 96
2019-11-11 17:00:00 1.3 13 Noroeste 26 Noroeste 0 -- -- 89
2019-11-11 16:00:00 2.1 18 Noroeste 32 Norte 0.8 -- -- 84
2019-11-11 15:00:00 5.1 15 Noroeste 30 Norte 1.8 -- -- 61
2019-11-11 14:00:00 6.2 12 Noroeste 33 Oeste 2 -- -- 60
2019-11-11 13:00:00 6.5 15 Norte 42 Norte 2.6 -- -- 62
2019-11-11 12:00:00 6 19 Norte 67 Nordeste 2.8 -- -- 70
2019-11-11 11:00:00 4.5 15 Norte 59 Norte 4.2 -- -- 98
2019-11-11 10:00:00 4.1 19 Norte 43 Norte 4.6 -- -- 99
2019-11-11 09:00:00 2.9 15 Noroeste 50 Norte 2.8 -- -- 100
2019-11-11 08:00:00 2 21 Oeste 27 Noroeste 2.4 -- -- 100
2019-11-11 07:00:00 1.8 14 Oeste 24 Oeste 2 -- -- 100
2019-11-11 06:00:00 1.4 10 Oeste 21 Sudoeste 0.2 -- -- 100
2019-11-11 05:00:00 1 10 Sudoeste 19 Oeste 0 -- -- 100
2019-11-11 04:00:00 0.4 0 Calma -- -- 0 -- -- 99
2019-11-11 03:00:00 -0.4 0 Calma -- -- 0 -- -- 100
2019-11-11 02:00:00 -0.8 0 Calma -- -- 0 -- -- 100
2019-11-11 01:00:00 -1.2 0 Calma -- -- 0 -- -- 100
2019-11-11 00:00:00 -1 0 Calma -- -- 0 -- -- 100
2019-11-10 23:00:00 -1.4 0 Calma -- -- 0 -- -- 100
2019-11-10 22:00:00 -1.6 0 Calma -- -- 0 -- -- 100
2019-11-10 21:00:00 -1.2 0 Calma -- -- 0 -- -- 100
2019-11-10 20:00:00 -1.2 0 Calma -- -- 0 -- -- 100
2019-11-10 19:00:00 -1.5 0 Calma -- -- 0.2 -- -- 100
2019-11-10 18:00:00 -1.4 0 Calma -- -- 0.2 -- -- 100
2019-11-10 17:00:00 -0.1 0 Calma -- -- 0.2 -- -- 100
2019-11-10 16:00:00 1.1 0 Calma -- -- 0.2 -- -- 95
2019-11-10 15:00:00 0.4 0 Calma -- -- 0.4 -- -- 98
2019-11-10 14:00:00 0.2 0 Calma -- -- 0.2 -- -- 98
2019-11-10 13:00:00 -0.2 0 Calma -- -- 0 -- -- 100
2019-11-10 12:00:00 -0.1 0 Calma -- -- 0 -- -- 99
2019-11-10 11:00:00 -1.4 0 Calma -- -- 0 -- -- 99
2019-11-10 10:00:00 -1.6 0 Calma -- -- 0 -- -- 99
2019-11-10 09:00:00 -1.9 0 Calma -- -- 0 -- -- 99
2019-11-10 08:00:00 -2.1 0 Calma -- -- 0 -- -- 99
2019-11-10 07:00:00 -2.1 0 Calma -- -- 0 -- -- 99
2019-11-10 06:00:00 -2.2 0 Calma -- -- 0 -- -- 99
2019-11-10 05:00:00 -2.4 0 Calma -- -- 0 -- -- 99
2019-11-10 04:00:00 -2.4 0 Calma -- -- 0 -- -- 99
2019-11-10 03:00:00 -2.3 0 Calma -- -- 0 -- -- 99
2019-11-10 02:00:00 -2.4 0 Calma -- -- 0 -- -- 99
2019-11-10 01:00:00 -2.5 0 Calma 19 Noroeste 0 -- -- 99
2019-11-10 00:00:00 -1.5 10 Noroeste 31 Norte 0 -- -- 99
2019-11-09 23:00:00 -1.1 14 Noroeste 27 Norte 0 -- -- 99
2019-11-09 22:00:00 -0.8 13 Noroeste 43 Noroeste 0 -- -- 99
2019-11-09 21:00:00 -0.5 30 Noroeste 63 Noroeste 0 -- -- 98
2019-11-09 20:00:00 0.8 20 Noroeste 44 Noroeste 0 -- -- 98
2019-11-09 19:00:00 1.4 29 Noroeste 58 Noroeste 0 -- -- 93
2019-11-09 18:00:00 1.8 42 Noroeste 70 Noroeste 0.2 -- -- 98
2019-11-09 17:00:00 2.1 23 Oeste 38 Oeste 0.8 -- -- 99
2019-11-09 16:00:00 2.6 22 Oeste 35 Oeste 1.6 -- -- 96
2019-11-09 15:00:00 1.7 21 Oeste 35 Oeste 2.2 -- -- 99
2019-11-09 14:00:00 1.3 17 Oeste 29 Oeste 2 -- -- 99
2019-11-09 13:00:00 0.6 11 Oeste 19 Oeste 1.2 -- -- 97
2019-11-09 12:00:00 -0.2 0 Calma -- -- 0.2 -- -- 100
2019-11-09 11:00:00 -0.4 0 Calma 20 Noroeste 0 -- -- 99
2019-11-09 10:00:00 -0.8 16 Oeste 21 Noroeste 0 -- -- 100
2019-11-09 09:00:00 -1 14 Oeste 22 Oeste 0 -- -- 100
2019-11-09 08:00:00 -1 13 Oeste 22 Oeste 0 -- -- 100
2019-11-09 07:00:00 -1 14 Oeste 27 Oeste 0 -- -- 100
2019-11-09 06:00:00 -0.9 19 Oeste 26 Oeste 0 -- -- 100
2019-11-09 05:00:00 -0.9 14 Oeste 23 Noroeste 0 -- -- 100
2019-11-09 04:00:00 -1 15 Oeste 23 Oeste 0 -- -- 100
2019-11-09 03:00:00 -1.2 13 Oeste 24 Oeste 0 -- -- 100
2019-11-09 02:00:00 -0.9 12 Oeste 25 Noroeste 0 -- -- 100
2019-11-09 01:00:00 -0.8 16 Oeste 30 Oeste 0 -- -- 100
2019-11-09 00:00:00 -0.8 18 Oeste 25 Oeste 0 -- -- 100